Terminal Aerodrome Forecast
Issued by NWS

Home | Current Version | Previous Version | Text Only | Print | Product List | Glossary On
Versions: 1 2 3 4 5 6 7 8 9 10 11 12 13 14
194
FTUS45 KVEF 250539
TAFBIH
TAF
KBIH 250539Z 2506/2606 34006KT P6SM VCSH BKN060
      TEMPO 2506/2509 -SHRA BKN050
     FM251000 32005KT P6SM BKN060
     FM251800 02010KT P6SM VCSH BKN100
     FM252300 01010KT P6SM VCSH BKN060 BKN080
      TEMPO 2523/2603 35025G35KT=

USA.gov is the U.S. government's official web portal to all federal, state and local government web resources and services.